»·PEaware :: DCM258 KTUS-KPSP

DCM258 :: KTUS-KPSP

FLIGHT INFORMATION

Flight Status: Arrived
Operator: DotCom
More flights by this operator :: More flights under this callsign
Pilot: Brad M. (22842)
Aircraft: BOEING 737-700
(B737)
More flights by this aircraft type
Origin: KTUS Tucson Intl
United States
Destination: KPSP Palm Springs Intl
United States
More flights between these airports :: More routes between these airports
Route: +BURRO4 GBN J50 BLH SBONO1
File this flight plan on PilotEdge
Remarks:
Altitude:
(Current/Filed)
36,000ft
Speed:
(Current/Filed)
400kts
Departed: 13-May-19 02:46 PM
Arrived: 13-May-19 03:41 PM
Distance/Time
Traveled:
298nm/0:55
Distance/Time
To Go:
Arrived

Flight Plot

Page will automatically refresh every two minutes.

Flight plan parsing failed; only flown route is shown


Map Options




Map Legend


Flown Route
Filed Route
Departure Airport
Arrival Airport
Navaid (VOR, NDB)
Fix

Horizontal Profiles

Position Reports

Time Latitude Longitude Heading Altitude Ground
Speed
13-May-19 13:45 32.115165 -110.955182 90 2590ft 0kts
13-May-19 13:46 32.115165 -110.955182 90 2590ft 0kts
13-May-19 13:48 32.115165 -110.955182 90 2590ft 0kts
13-May-19 13:49 32.115165 -110.955182 90 2590ft 0kts
13-May-19 13:50 32.115165 -110.955182 90 2590ft 0kts
13-May-19 13:51 32.115165 -110.955182 90 2590ft 0kts
13-May-19 13:52 32.115165 -110.955182 90 2590ft 0kts
13-May-19 13:53 32.115165 -110.955182 90 2590ft 0kts
13-May-19 13:54 32.115165 -110.955182 90 2590ft 0kts
13-May-19 13:55 32.115165 -110.955182 90 2590ft 0kts
13-May-19 13:56 32.115165 -110.955182 90 2590ft 0kts
13-May-19 13:57 32.115165 -110.955182 90 2590ft 0kts
13-May-19 13:58 32.115165 -110.955182 90 2590ft 0kts
13-May-19 13:59 32.115165 -110.955182 90 2590ft 0kts
13-May-19 14:00 32.115165 -110.955182 90 2590ft 0kts
13-May-19 14:01 32.115165 -110.955182 90 2590ft 0kts
13-May-19 14:02 32.115165 -110.955182 90 2590ft 0kts
13-May-19 14:03 32.115165 -110.955182 90 2590ft 0kts
13-May-19 14:04 32.115165 -110.955182 90 2590ft 0kts
13-May-19 14:05 32.115165 -110.955182 90 2590ft 0kts
13-May-19 14:06 32.115165 -110.955182 90 2590ft 0kts
13-May-19 14:06 32.115165 -110.955182 90 2590ft 0kts
13-May-19 14:08 32.115165 -110.955182 90 2590ft 0kts
13-May-19 14:09 32.115165 -110.955182 90 2590ft 0kts
13-May-19 14:09 32.115165 -110.955182 90 2590ft 0kts
13-May-19 14:10 32.115165 -110.955182 90 2590ft 0kts
13-May-19 14:12 32.115165 -110.955182 90 2590ft 0kts
13-May-19 14:12 32.115165 -110.955182 90 2590ft 0kts
13-May-19 14:13 32.115165 -110.955182 90 2590ft 0kts
13-May-19 14:14 32.115165 -110.955182 90 2590ft 0kts
13-May-19 14:15 32.115165 -110.955182 90 2590ft 0kts
13-May-19 14:16 32.115165 -110.955182 90 2590ft 0kts
13-May-19 14:17 32.115165 -110.955182 90 2590ft 0kts
13-May-19 14:18 32.115165 -110.955182 90 2590ft 0kts
13-May-19 14:19 32.115165 -110.955182 90 2590ft 0kts
13-May-19 14:20 32.115165 -110.955182 90 2590ft 0kts
13-May-19 14:21 32.115165 -110.955182 90 2590ft 0kts
13-May-19 14:22 32.115165 -110.955182 90 2590ft 0kts
13-May-19 14:23 32.115165 -110.955182 90 2590ft 0kts
13-May-19 14:24 32.115165 -110.955182 90 2590ft 0kts
13-May-19 14:25 32.115165 -110.955182 90 2590ft 0kts
13-May-19 14:26 32.115165 -110.955182 90 2590ft 0kts
13-May-19 14:27 32.115165 -110.955182 90 2590ft 0kts
13-May-19 14:28 32.115165 -110.955182 90 2590ft 0kts
13-May-19 14:29 32.115165 -110.955182 90 2590ft 0kts
13-May-19 14:30 32.115165 -110.955182 90 2590ft 0kts
13-May-19 14:31 32.115165 -110.955182 90 2590ft 0kts
13-May-19 14:32 32.115165 -110.955182 90 2590ft 0kts
13-May-19 14:33 32.115165 -110.955182 90 2590ft 0kts
13-May-19 14:34 32.115165 -110.955182 90 2590ft 0kts
13-May-19 14:35 32.115165 -110.955182 90 2590ft 0kts
13-May-19 14:36 32.115165 -110.955182 90 2590ft 0kts
13-May-19 14:37 32.115163 -110.955045 88 2590ft 6kts
13-May-19 14:38 32.116241 -110.951189 53 2590ft 6kts
13-May-19 14:39 32.117609 -110.949551 43 2590ft 17kts
13-May-19 14:40 32.120382 -110.946298 44 2590ft 15kts
13-May-19 14:41 32.123432 -110.945505 316 2590ft 13kts
13-May-19 14:42 32.124174 -110.946343 304 2590ft 2kts
13-May-19 14:43 32.123925 -110.946946 226 2590ft 0kts
13-May-19 14:44 32.122889 -110.947337 138 2590ft 20kts
13-May-19 14:45 32.097650 -110.916873 131 3582ft 173kts
13-May-19 14:46 32.051795 -110.881790 173 5346ft 243kts
13-May-19 14:47 31.987506 -110.919313 237 8188ft 289kts
13-May-19 14:48 31.988266 -111.013911 299 10681ft 335kts
13-May-19 14:49 32.037138 -111.111560 302 13932ft 354kts
13-May-19 14:50 32.090423 -111.212413 312 17321ft 366kts
13-May-19 14:51 32.160460 -111.303151 314 20391ft 381kts
13-May-19 14:52 32.232821 -111.397782 313 23134ft 395kts
13-May-19 14:53 32.303719 -111.500057 305 25656ft 409kts
13-May-19 14:54 32.366740 -111.614528 305 27989ft 418kts
13-May-19 14:55 32.431475 -111.731686 305 30102ft 428kts
13-May-19 14:56 32.496917 -111.849924 305 32469ft 425kts
13-May-19 14:57 32.561104 -111.965700 305 34736ft 417kts
13-May-19 14:58 32.625029 -112.080780 304 35962ft 425kts
13-May-19 14:59 32.690266 -112.198052 304 35953ft 425kts
13-May-19 15:00 32.755786 -112.315636 304 35952ft 426kts
13-May-19 15:01 32.821553 -112.433471 304 35952ft 427kts
13-May-19 15:02 32.887394 -112.551241 304 35951ft 428kts
13-May-19 15:03 32.953959 -112.667691 309 35955ft 428kts
13-May-19 15:04 33.032452 -112.775390 312 35959ft 428kts
13-May-19 15:05 33.112181 -112.881691 312 35966ft 429kts
13-May-19 15:06 33.191109 -112.986824 312 35961ft 430kts
13-May-19 15:07 33.271119 -113.093284 312 35954ft 430kts
13-May-19 15:08 33.351493 -113.200107 312 35894ft 435kts
13-May-19 15:09 33.422111 -113.322180 299 34903ft 449kts
13-May-19 15:10 33.468569 -113.462333 285 33906ft 455kts
13-May-19 15:11 33.489277 -113.612922 277 32904ft 459kts
13-May-19 15:12 33.504023 -113.765350 277 31905ft 462kts
13-May-19 15:13 33.519159 -113.919556 277 30900ft 464kts
13-May-19 15:14 33.532979 -114.073677 277 29901ft 466kts
13-May-19 15:15 33.546936 -114.229395 277 28897ft 471kts
13-May-19 15:16 33.561281 -114.387230 277 27886ft 474kts
13-May-19 15:17 33.575870 -114.545522 277 26881ft 478kts
13-May-19 15:18 33.592346 -114.704842 282 25877ft 480kts
13-May-19 15:19 33.628819 -114.858943 290 24870ft 475kts
13-May-19 15:20 33.676089 -115.006376 291 23858ft 461kts
13-May-19 15:21 33.722222 -115.147699 291 21906ft 456kts
13-May-19 15:22 33.767032 -115.284543 291 19235ft 426kts
13-May-19 15:23 33.811175 -115.418872 291 16625ft 418kts
13-May-19 15:24 33.852779 -115.547094 290 14170ft 413kts
13-May-19 15:25 33.891862 -115.668663 290 11849ft 393kts
13-May-19 15:26 33.912077 -115.798004 266 11000ft 393kts
13-May-19 15:27 33.903950 -115.922415 264 10996ft 333kts
13-May-19 15:28 33.896996 -116.024863 263 10991ft 283kts
13-May-19 15:29 33.875221 -116.108388 229 11022ft 262kts
13-May-19 15:30 33.829081 -116.172230 223 11002ft 244kts
13-May-19 15:31 33.767910 -116.196450 191 9190ft 231kts
13-May-19 15:32 33.706085 -116.210975 191 7368ft 224kts
13-May-19 15:33 33.659287 -116.249842 261 5471ft 221kts
13-May-19 15:34 33.686914 -116.309466 311 4003ft 207kts
13-May-19 15:35 33.722881 -116.356640 311 3357ft 176kts
13-May-19 15:36 33.747283 -116.403382 300 2577ft 144kts
13-May-19 15:37 33.771624 -116.443041 308 1843ft 149kts
13-May-19 15:38 33.798869 -116.479652 318 1032ft 142kts
13-May-19 15:39 33.828895 -116.506952 324 485ft 74kts
13-May-19 15:40 33.832974 -116.511966 200 485ft 11kts
13-May-19 15:41 33.829312 -116.509469 143 484ft 23kts
13-May-19 15:42 33.825345 -116.507909 279 484ft 17kts
13-May-19 15:43 33.825629 -116.509241 308 485ft 0kts
13-May-19 15:44 33.825915 -116.509443 57 485ft 5kts
13-May-19 15:45 33.825891 -116.509398 178 485ft 0kts
13-May-19 15:46 33.825891 -116.509398 178 485ft 0kts
13-May-19 15:47 33.825891 -116.509398 178 485ft 0kts
13-May-19 15:48 33.825891 -116.509398 178 485ft 0kts
13-May-19 15:49 33.825891 -116.509398 178 485ft 0kts
13-May-19 15:50 33.825891 -116.509398 178 485ft 0kts
13-May-19 15:51 33.825891 -116.509398 178 485ft 0kts

Navigation Log

Ident Type
Flight plan parsing failed, navigation log unavailable